Terminal Aerodrome Forecast
Issued by NWS

Home | Current Version | Previous Version | Text Only | Print | Product List | Glossary On
Versions: 1 2 3 4 5 6 7 8 9 10 11 12 13 14 15 16 17 18 19 20 21 22 23 24
710
FTUS46 KPDT 191740
TAFYKM
TAF
KYKM 191740Z 1918/2018 00000KT P6SM BKN090
     FM192000 VRB05KT P6SM SCT090
     FM200200 27004KT P6SM SKC
     FM200700 28005KT P6SM FEW150
     FM201200 16006KT P6SM SCT150=

USA.gov is the U.S. government's official web portal to all federal, state and local government web resources and services.